Time;durP1;ratioP1;P1;durP2;ratioP2;P2;SDS_P1;SDS_P2;PMS_P1;PMS_P2;Temp;Humidity;BMP_temperature;BMP_pressure;BME280_temperature;BME280_humidity;BME280_pressure;Samples;Min_cycle;Max_cycle;Signal;HPM_P1;HPM_P2
2022/06/05 00:00:10;;;;;;;25.80;23.17;;;;;;;;;;345161;28;1119;-85
2022/06/05 00:00:22;;;;;;;27.52;23.13;;;;;;;;;;343871;28;907;-88
2022/06/05 00:00:37;;;;;;;28.48;22.70;;;;;;;;;;345537;28;847;-85
2022/06/05 00:01:22;;;;;;;29.10;22.58;;;;;;;;;;343913;28;1390;-85
2022/06/05 00:01:39;;;;;;;29.27;24.23;;;;;;;;;;340534;28;1284;-85
2022/06/05 00:02:29;;;;;;;27.80;23.75;;;;;;;;;;342780;28;978;-85
2022/06/05 00:02:45;;;;;;;27.27;23.65;;;;;;;;;;344254;28;899;-85
2022/06/05 00:03:15;;;;;;;26.17;23.48;;;;;;;;;;345551;28;954;-91
2022/06/05 00:03:38;;;;;;;27.77;24.05;;;;;;;;;;345213;28;887;-85
2022/06/05 00:04:20;;;;;;;27.65;23.80;;;;;;;;;;346868;28;748;-85
2022/06/05 00:04:38;;;;;;;28.23;25.20;;;;;;;;;;343843;28;918;-85
2022/06/05 00:05:01;;;;;;;28.00;25.20;;;;;;;;;;344224;28;955;-85
2022/06/05 00:05:21;;;;;;;29.83;24.88;;;;;;;;;;343870;28;879;-85
2022/06/05 00:05:44;;;;;;;29.20;24.90;;;;;;;;;;343537;28;1122;-85
2022/06/05 00:06:39;;;;;;;30.63;25.27;;;;;;;;;;345350;28;1199;-84
2022/06/05 00:06:52;;;;;;;29.75;25.40;;;;;;;;;;342675;28;1047;-85
2022/06/05 00:07:21;;;;;;;29.95;25.05;;;;;;;;;;342716;28;1276;-86
2022/06/05 00:07:45;;;;;;;27.35;24.65;;;;;;;;;;343606;28;1092;-85
2022/06/05 00:08:12;;;;;;;27.55;24.73;;;;;;;;;;345381;28;1111;-92
2022/06/05 00:08:34;;;;;;;28.45;25.35;;;;;;;;;;343746;28;1069;-84
2022/06/05 00:09:03;;;;;;;28.60;25.35;;;;;;;;;;344115;28;1310;-85
2022/06/05 00:09:30;;;;;;;31.10;25.67;;;;;;;;;;345456;28;859;-84
2022/06/05 00:10:19;;;;;;;28.92;25.10;;;;;;;;;;344009;28;931;-85
2022/06/05 00:10:52;;;;;;;28.13;24.08;;;;;;;;;;339748;29;1200;-86
2022/06/05 00:11:02;;;;;;;29.30;25.75;;;;;;;;;;344144;28;1213;-91
2022/06/05 00:11:13;;;;;;;28.60;25.57;;;;;;;;;;344114;28;844;-85
2022/06/05 00:11:27;;;;;;;28.83;25.75;;;;;;;;;;343958;28;1231;-85
2022/06/05 00:12:10;;;;;;;29.00;26.08;;;;;;;;;;344799;28;935;-85
2022/06/05 00:12:38;;;;;;;30.33;25.58;;;;;;;;;;343942;28;861;-87
2022/06/05 00:13:10;;;;;;;28.45;24.60;;;;;;;;;;345564;28;860;-84
2022/06/05 00:13:39;;;;;;;30.20;25.77;;;;;;;;;;343673;28;1077;-90
2022/06/05 00:13:54;;;;;;;32.25;27.75;;;;;;;;;;344110;28;887;-89
2022/06/05 00:14:04;;;;;;;31.48;28.17;;;;;;;;;;342738;28;1312;-85
2022/06/05 00:14:15;;;;;;;30.40;27.30;;;;;;;;;;342755;28;1100;-86
2022/06/05 00:14:26;;;;;;;30.43;26.70;;;;;;;;;;342369;28;899;-85
2022/06/05 00:14:38;;;;;;;32.33;26.83;;;;;;;;;;342793;28;721;-89
2022/06/05 00:14:48;;;;;;;33.55;27.33;;;;;;;;;;342863;28;914;-84
2022/06/05 00:14:59;;;;;;;32.53;28.33;;;;;;;;;;341459;28;1212;-85
2022/06/05 00:15:10;;;;;;;32.35;28.77;;;;;;;;;;340002;28;1359;-86
2022/06/05 00:15:20;;;;;;;33.10;29.33;;;;;;;;;;341156;29;982;-87
2022/06/05 00:15:32;;;;;;;32.35;28.98;;;;;;;;;;341222;29;944;-85
2022/06/05 00:15:43;;;;;;;32.65;29.15;;;;;;;;;;341723;28;857;-85
2022/06/05 00:15:54;;;;;;;32.27;28.77;;;;;;;;;;342851;28;843;-89
2022/06/05 00:16:05;;;;;;;33.30;28.80;;;;;;;;;;343980;28;863;-85
2022/06/05 00:16:19;;;;;;;32.30;28.88;;;;;;;;;;344011;28;856;-86
2022/06/05 00:16:29;;;;;;;32.10;28.58;;;;;;;;;;343836;28;871;-85
2022/06/05 00:16:41;;;;;;;31.52;28.10;;;;;;;;;;342401;28;1256;-85
2022/06/05 00:16:51;;;;;;;32.50;29.02;;;;;;;;;;342998;28;856;-84
2022/06/05 00:17:02;;;;;;;32.87;29.47;;;;;;;;;;344324;28;856;-87
2022/06/05 00:17:16;;;;;;;32.50;29.08;;;;;;;;;;343612;28;1170;-85
2022/06/05 00:17:27;;;;;;;32.30;28.85;;;;;;;;;;342397;28;862;-85
2022/06/05 00:17:38;;;;;;;32.57;29.10;;;;;;;;;;342527;28;1401;-90
2022/06/05 00:17:48;;;;;;;35.20;29.35;;;;;;;;;;342784;28;1258;-92
2022/06/05 00:17:59;;;;;;;34.95;28.65;;;;;;;;;;342830;28;895;-85
2022/06/05 00:18:11;;;;;;;33.83;28.17;;;;;;;;;;342399;28;1259;-91
2022/06/05 00:18:21;;;;;;;30.55;27.27;;;;;;;;;;342636;28;1355;-92
2022/06/05 00:18:38;;;;;;;30.85;27.65;;;;;;;;;;342642;28;832;-85
2022/06/05 00:18:48;;;;;;;31.75;28.55;;;;;;;;;;343841;28;1391;-92
2022/06/05 00:18:59;;;;;;;32.03;28.73;;;;;;;;;;343857;28;1257;-84
2022/06/05 00:19:10;;;;;;;31.13;27.90;;;;;;;;;;344915;28;1316;-91
2022/06/05 00:19:21;;;;;;;31.48;28.15;;;;;;;;;;345395;28;847;-84
2022/06/05 00:19:31;;;;;;;32.08;28.63;;;;;;;;;;345272;28;930;-84
2022/06/05 00:19:46;;;;;;;32.70;29.25;;;;;;;;;;344995;28;1276;-85
2022/06/05 00:19:56;;;;;;;32.58;28.95;;;;;;;;;;343865;28;852;-85
2022/06/05 00:20:08;;;;;;;32.70;28.95;;;;;;;;;;344556;28;1278;-86
2022/06/05 00:20:19;;;;;;;32.55;28.98;;;;;;;;;;344892;28;1240;-85
2022/06/05 00:20:31;;;;;;;34.90;29.42;;;;;;;;;;343729;28;1476;-85
2022/06/05 00:20:43;;;;;;;35.08;29.33;;;;;;;;;;344100;28;957;-84
2022/06/05 00:20:53;;;;;;;31.85;27.92;;;;;;;;;;344218;28;895;-89
2022/06/05 00:21:05;;;;;;;31.00;27.27;;;;;;;;;;344731;28;836;-84
2022/06/05 00:21:17;;;;;;;31.00;27.67;;;;;;;;;;345421;28;914;-85
2022/06/05 00:21:28;;;;;;;31.52;28.25;;;;;;;;;;345326;28;887;-86
2022/06/05 00:21:38;;;;;;;32.15;28.70;;;;;;;;;;345333;28;1115;-84
2022/06/05 00:21:49;;;;;;;33.65;28.63;;;;;;;;;;345507;28;820;-85
2022/06/05 00:22:00;;;;;;;34.23;28.90;;;;;;;;;;345548;28;864;-84
2022/06/05 00:22:10;;;;;;;34.25;29.98;;;;;;;;;;345465;28;914;-84
2022/06/05 00:22:22;;;;;;;33.85;30.02;;;;;;;;;;346775;28;863;-88
2022/06/05 00:22:33;;;;;;;32.55;28.98;;;;;;;;;;347991;28;839;-84
2022/06/05 00:22:44;;;;;;;31.45;27.92;;;;;;;;;;348176;28;868;-86
2022/06/05 00:22:54;;;;;;;31.40;28.03;;;;;;;;;;348271;28;866;-90
2022/06/05 00:23:05;;;;;;;31.90;28.50;;;;;;;;;;348171;28;850;-86
2022/06/05 00:23:15;;;;;;;32.37;28.97;;;;;;;;;;348203;28;827;-85
2022/06/05 00:23:26;;;;;;;32.35;28.95;;;;;;;;;;348222;28;815;-83
2022/06/05 00:23:38;;;;;;;32.22;28.90;;;;;;;;;;347959;28;874;-85
2022/06/05 00:23:50;;;;;;;31.55;28.23;;;;;;;;;;348261;28;886;-84
2022/06/05 00:24:00;;;;;;;31.67;28.10;;;;;;;;;;348289;28;937;-84
2022/06/05 00:24:11;;;;;;;32.67;27.63;;;;;;;;;;348195;28;780;-85
2022/06/05 00:24:21;;;;;;;32.90;28.23;;;;;;;;;;348097;28;953;-90
2022/06/05 00:24:36;;;;;;;32.53;28.67;;;;;;;;;;347993;28;966;-84
2022/06/05 00:24:47;;;;;;;32.63;29.05;;;;;;;;;;348243;28;941;-85
2022/06/05 00:24:57;;;;;;;32.17;28.70;;;;;;;;;;348225;28;963;-84
2022/06/05 00:25:10;;;;;;;32.03;28.63;;;;;;;;;;346744;28;859;-92
2022/06/05 00:25:20;;;;;;;32.42;29.08;;;;;;;;;;346730;28;966;-88
2022/06/05 00:25:47;;;;;;;32.08;28.80;;;;;;;;;;346513;28;1247;-84
2022/06/05 00:26:14;;;;;;;32.67;29.17;;;;;;;;;;346867;28;874;-90
2022/06/05 00:26:31;;;;;;;31.20;28.08;;;;;;;;;;345294;28;911;-84
2022/06/05 00:27:15;;;;;;;31.15;27.80;;;;;;;;;;345451;28;899;-86
2022/06/05 00:27:39;;;;;;;30.95;27.73;;;;;;;;;;345214;28;879;-89
2022/06/05 00:27:59;;;;;;;31.40;28.05;;;;;;;;;;345321;28;1175;-85
2022/06/05 00:28:20;;;;;;;30.38;27.33;;;;;;;;;;343995;28;1255;-87
2022/06/05 00:28:49;;;;;;;30.75;27.55;;;;;;;;;;345434;28;808;-85
2022/06/05 00:29:12;;;;;;;30.90;27.90;;;;;;;;;;344036;28;950;-85
2022/06/05 00:29:40;;;;;;;32.85;27.40;;;;;;;;;;344611;28;923;-90
2022/06/05 00:30:17;;;;;;;31.08;27.70;;;;;;;;;;345504;28;939;-84
2022/06/05 00:30:45;;;;;;;32.80;28.00;;;;;;;;;;343921;28;1164;-90
2022/06/05 00:31:13;;;;;;;30.42;26.98;;;;;;;;;;344030;28;924;-85
2022/06/05 00:31:47;;;;;;;31.10;27.75;;;;;;;;;;343953;28;887;-91
2022/06/05 00:32:29;;;;;;;30.08;26.92;;;;;;;;;;342685;28;891;-84
2022/06/05 00:32:48;;;;;;;30.35;27.15;;;;;;;;;;336969;29;971;-84
2022/06/05 00:33:09;;;;;;;31.00;27.00;;;;;;;;;;342406;28;1440;-85
2022/06/05 00:33:29;;;;;;;32.70;27.38;;;;;;;;;;341926;28;935;-85
2022/06/05 00:33:41;;;;;;;30.40;27.20;;;;;;;;;;342357;28;1010;-85
2022/06/05 00:33:51;;;;;;;29.98;26.90;;;;;;;;;;342724;28;1549;-89
2022/06/05 00:34:02;;;;;;;30.08;26.75;;;;;;;;;;341356;28;1289;-85
2022/06/05 00:34:13;;;;;;;32.63;27.17;;;;;;;;;;341272;29;1201;-85
2022/06/05 00:34:23;;;;;;;33.90;26.95;;;;;;;;;;341282;28;1209;-89
2022/06/05 00:34:34;;;;;;;33.43;27.10;;;;;;;;;;341229;29;1184;-86
2022/06/05 00:34:44;;;;;;;31.13;26.80;;;;;;;;;;341087;29;852;-91
2022/06/05 00:34:55;;;;;;;30.55;27.30;;;;;;;;;;342419;28;1254;-87
2022/06/05 00:35:14;;;;;;;30.03;26.93;;;;;;;;;;341391;29;1190;-89
2022/06/05 00:35:30;;;;;;;30.00;26.73;;;;;;;;;;342664;28;1231;-91
2022/06/05 00:35:54;;;;;;;32.42;26.45;;;;;;;;;;341016;28;966;-85
2022/06/05 00:36:13;;;;;;;30.35;26.75;;;;;;;;;;342338;28;1403;-85
2022/06/05 00:36:35;;;;;;;31.75;27.23;;;;;;;;;;342835;28;947;-85
2022/06/05 00:37:11;;;;;;;31.63;27.92;;;;;;;;;;344072;28;896;-84
2022/06/05 00:37:47;;;;;;;31.17;27.35;;;;;;;;;;346175;28;759;-91
2022/06/05 00:38:12;;;;;;;29.63;26.50;;;;;;;;;;345330;28;2047;-90
2022/06/05 00:38:55;;;;;;;30.58;27.13;;;;;;;;;;345511;28;855;-91
2022/06/05 00:39:05;;;;;;;30.50;27.20;;;;;;;;;;342764;28;867;-85
2022/06/05 00:39:59;;;;;;;30.77;27.52;;;;;;;;;;344676;28;1068;-85
2022/06/05 00:40:34;;;;;;;31.67;28.38;;;;;;;;;;345106;28;1481;-85
2022/06/05 00:41:09;;;;;;;31.13;27.83;;;;;;;;;;343740;28;1247;-85
2022/06/05 00:41:50;;;;;;;31.63;28.25;;;;;;;;;;344024;28;914;-85
2022/06/05 00:42:08;;;;;;;30.65;27.40;;;;;;;;;;343712;28;1169;-86
2022/06/05 00:42:25;;;;;;;30.15;26.60;;;;;;;;;;344070;28;2017;-84
2022/06/05 00:42:37;;;;;;;31.88;27.70;;;;;;;;;;344051;28;1002;-92
2022/06/05 00:42:48;;;;;;;32.30;28.15;;;;;;;;;;344077;28;867;-84
2022/06/05 00:43:04;;;;;;;33.35;27.50;;;;;;;;;;342707;28;1452;-85
2022/06/05 00:43:18;;;;;;;31.15;26.27;;;;;;;;;;342625;28;927;-85
2022/06/05 00:43:29;;;;;;;29.33;26.33;;;;;;;;;;342828;28;836;-86
2022/06/05 00:43:40;;;;;;;29.87;26.77;;;;;;;;;;342532;28;808;-85
2022/06/05 00:43:54;;;;;;;30.52;27.30;;;;;;;;;;342527;28;1342;-85
2022/06/05 00:44:05;;;;;;;30.50;27.33;;;;;;;;;;342616;28;1264;-86
2022/06/05 00:44:20;;;;;;;30.67;27.55;;;;;;;;;;341384;29;1344;-85
2022/06/05 00:44:42;;;;;;;31.30;28.02;;;;;;;;;;341396;29;1068;-89
2022/06/05 00:44:56;;;;;;;30.60;27.30;;;;;;;;;;341231;29;1095;-85
2022/06/05 00:45:09;;;;;;;30.70;27.30;;;;;;;;;;341291;28;1419;-88
2022/06/05 00:45:20;;;;;;;30.67;27.38;;;;;;;;;;341265;29;1492;-89
2022/06/05 00:45:31;;;;;;;30.02;26.80;;;;;;;;;;341371;28;1157;-86
2022/06/05 00:45:43;;;;;;;32.58;27.52;;;;;;;;;;341181;28;871;-91
2022/06/05 00:45:56;;;;;;;33.30;27.55;;;;;;;;;;341346;29;1202;-84
2022/06/05 00:46:07;;;;;;;31.50;27.35;;;;;;;;;;342639;28;844;-92
2022/06/05 00:46:18;;;;;;;30.85;27.60;;;;;;;;;;344120;28;808;-85
2022/06/05 00:46:29;;;;;;;31.00;27.80;;;;;;;;;;342648;28;1481;-85
2022/06/05 00:46:41;;;;;;;31.45;27.65;;;;;;;;;;343302;28;1309;-85
2022/06/05 00:46:52;;;;;;;31.50;27.05;;;;;;;;;;343987;28;879;-85
2022/06/05 00:47:04;;;;;;;29.90;26.42;;;;;;;;;;342409;28;1164;-87
2022/06/05 00:47:19;;;;;;;29.65;26.63;;;;;;;;;;341140;28;1309;-85
2022/06/05 00:47:32;;;;;;;29.95;26.85;;;;;;;;;;341294;29;1316;-85
2022/06/05 00:47:44;;;;;;;29.13;26.10;;;;;;;;;;341185;28;983;-85
2022/06/05 00:47:55;;;;;;;29.08;26.08;;;;;;;;;;339982;29;1312;-85
2022/06/05 00:48:08;;;;;;;29.55;26.38;;;;;;;;;;340012;29;963;-85
2022/06/05 00:48:19;;;;;;;30.77;27.05;;;;;;;;;;340062;29;928;-84
2022/06/05 00:48:30;;;;;;;31.80;27.83;;;;;;;;;;341563;29;852;-91
2022/06/05 00:48:40;;;;;;;31.38;27.58;;;;;;;;;;342492;28;982;-84
2022/06/05 00:48:51;;;;;;;31.43;27.50;;;;;;;;;;342719;28;1236;-84
2022/06/05 00:49:03;;;;;;;32.78;27.42;;;;;;;;;;343637;28;1077;-90
2022/06/05 00:49:14;;;;;;;31.40;26.80;;;;;;;;;;342603;28;1361;-85
2022/06/05 00:49:37;;;;;;;30.05;26.33;;;;;;;;;;342598;28;1209;-85
2022/06/05 00:49:50;;;;;;;30.92;26.42;;;;;;;;;;342801;28;896;-86
2022/06/05 00:50:15;;;;;;;30.77;26.73;;;;;;;;;;343909;28;1346;-86
2022/06/05 00:50:30;;;;;;;29.75;26.75;;;;;;;;;;344008;28;860;-85
2022/06/05 00:50:44;;;;;;;30.30;26.98;;;;;;;;;;343795;28;1918;-85
2022/06/05 00:50:54;;;;;;;32.55;26.73;;;;;;;;;;344002;28;1038;-84
2022/06/05 00:51:05;;;;;;;32.40;26.67;;;;;;;;;;343993;28;1002;-85
2022/06/05 00:51:16;;;;;;;30.30;26.58;;;;;;;;;;343914;28;1325;-84
2022/06/05 00:51:26;;;;;;;30.02;26.70;;;;;;;;;;342833;28;899;-86
2022/06/05 00:51:38;;;;;;;29.88;26.65;;;;;;;;;;341277;28;1230;-92
2022/06/05 00:51:49;;;;;;;31.13;26.92;;;;;;;;;;341136;29;1505;-84
2022/06/05 00:52:01;;;;;;;30.13;26.63;;;;;;;;;;342641;28;1330;-85
2022/06/05 00:52:15;;;;;;;30.00;26.40;;;;;;;;;;342639;28;916;-85
2022/06/05 00:52:30;;;;;;;29.63;26.20;;;;;;;;;;341374;29;1426;-91
2022/06/05 00:52:43;;;;;;;30.05;26.50;;;;;;;;;;341274;28;1074;-91
2022/06/05 00:53:00;;;;;;;31.60;26.77;;;;;;;;;;344025;28;1371;-85
2022/06/05 00:53:11;;;;;;;31.17;26.35;;;;;;;;;;343841;28;939;-84
2022/06/05 00:53:21;;;;;;;31.67;26.30;;;;;;;;;;344143;28;895;-91
2022/06/05 00:53:32;;;;;;;30.05;26.40;;;;;;;;;;342711;28;1200;-86
2022/06/05 00:53:42;;;;;;;30.37;26.87;;;;;;;;;;342369;28;1145;-84
2022/06/05 00:53:53;;;;;;;28.98;25.85;;;;;;;;;;343895;28;1305;-85
2022/06/05 00:54:03;;;;;;;28.70;25.37;;;;;;;;;;342550;28;1157;-86
2022/06/05 00:54:14;;;;;;;28.33;25.30;;;;;;;;;;341313;28;1173;-84
2022/06/05 00:54:25;;;;;;;29.40;25.90;;;;;;;;;;341523;29;852;-85
2022/06/05 00:54:36;;;;;;;29.63;26.13;;;;;;;;;;341157;29;1388;-91
2022/06/05 00:54:47;;;;;;;30.25;26.63;;;;;;;;;;342507;28;1319;-91
2022/06/05 00:54:57;;;;;;;30.02;26.70;;;;;;;;;;342692;28;1315;-84
2022/06/05 00:55:09;;;;;;;30.53;26.90;;;;;;;;;;342695;28;828;-92
2022/06/05 00:55:20;;;;;;;29.55;26.42;;;;;;;;;;342816;28;883;-85
2022/06/05 00:55:40;;;;;;;29.27;26.08;;;;;;;;;;342835;28;919;-91
2022/06/05 00:55:52;;;;;;;29.65;25.85;;;;;;;;;;343899;28;895;-84
2022/06/05 00:56:03;;;;;;;29.70;26.35;;;;;;;;;;343727;28;1253;-85
2022/06/05 00:56:13;;;;;;;30.00;26.10;;;;;;;;;;344029;28;839;-90
2022/06/05 00:56:24;;;;;;;30.42;26.65;;;;;;;;;;344106;28;876;-85
2022/06/05 00:56:37;;;;;;;30.37;26.70;;;;;;;;;;344154;28;832;-92
2022/06/05 00:56:48;;;;;;;30.17;26.65;;;;;;;;;;342383;28;903;-85
2022/06/05 00:56:58;;;;;;;31.50;26.50;;;;;;;;;;343444;28;1495;-90
2022/06/05 00:57:12;;;;;;;30.43;27.00;;;;;;;;;;343982;28;868;-90
2022/06/05 00:57:25;;;;;;;30.10;26.90;;;;;;;;;;342328;28;1420;-91
2022/06/05 00:57:37;;;;;;;30.83;27.45;;;;;;;;;;342620;28;1359;-90
2022/06/05 00:57:50;;;;;;;30.95;27.63;;;;;;;;;;342596;28;855;-91
2022/06/05 00:58:03;;;;;;;30.02;26.67;;;;;;;;;;342674;28;863;-86
2022/06/05 00:58:15;;;;;;;29.85;26.38;;;;;;;;;;342709;28;856;-85
2022/06/05 00:58:26;;;;;;;30.30;26.55;;;;;;;;;;342551;28;1490;-85
2022/06/05 00:58:37;;;;;;;29.63;26.30;;;;;;;;;;342578;28;1220;-90
2022/06/05 00:58:47;;;;;;;29.85;26.65;;;;;;;;;;342417;28;1224;-86
2022/06/05 00:58:58;;;;;;;30.25;27.05;;;;;;;;;;342623;28;1206;-85
2022/06/05 00:59:12;;;;;;;30.35;26.90;;;;;;;;;;345282;28;1285;-87
2022/06/05 00:59:23;;;;;;;31.45;26.98;;;;;;;;;;343977;28;1430;-90
2022/06/05 00:59:34;;;;;;;30.73;26.07;;;;;;;;;;344142;28;839;-86
2022/06/05 00:59:48;;;;;;;29.13;26.02;;;;;;;;;;343362;28;1371;-84
2022/06/05 01:00:11;;;;;;;28.98;25.88;;;;;;;;;;343723;28;1180;-86
2022/06/05 01:00:34;;;;;;;29.45;26.38;;;;;;;;;;343963;28;1436;-90
2022/06/05 01:00:49;;;;;;;29.05;25.98;;;;;;;;;;343270;28;859;-85
2022/06/05 01:01:00;;;;;;;31.42;26.40;;;;;;;;;;344018;28;836;-85
2022/06/05 01:01:10;;;;;;;32.87;26.73;;;;;;;;;;341105;28;1225;-91
2022/06/05 01:01:21;;;;;;;33.13;27.05;;;;;;;;;;342211;28;1233;-87
2022/06/05 01:01:32;;;;;;;31.08;26.85;;;;;;;;;;341263;28;1373;-85
2022/06/05 01:01:43;;;;;;;29.57;26.43;;;;;;;;;;342061;28;1357;-86
2022/06/05 01:01:53;;;;;;;28.92;25.92;;;;;;;;;;342541;28;864;-84
2022/06/05 01:02:05;;;;;;;28.45;25.45;;;;;;;;;;342727;28;784;-84
2022/06/05 01:02:16;;;;;;;28.75;25.73;;;;;;;;;;342179;28;1393;-84
2022/06/05 01:02:28;;;;;;;29.40;25.95;;;;;;;;;;342740;28;999;-85
2022/06/05 01:02:41;;;;;;;30.67;26.17;;;;;;;;;;342767;28;852;-84
2022/06/05 01:02:54;;;;;;;31.17;26.55;;;;;;;;;;343736;28;1212;-84
2022/06/05 01:03:08;;;;;;;28.90;25.58;;;;;;;;;;344109;28;832;-85
2022/06/05 01:03:20;;;;;;;28.27;25.17;;;;;;;;;;344103;28;852;-91
2022/06/05 01:03:31;;;;;;;28.70;25.65;;;;;;;;;;345102;28;1319;-84
2022/06/05 01:03:42;;;;;;;29.90;26.30;;;;;;;;;;345107;28;1299;-85
2022/06/05 01:03:52;;;;;;;30.13;26.80;;;;;;;;;;344791;28;1273;-86
2022/06/05 01:04:03;;;;;;;29.38;26.23;;;;;;;;;;343941;28;1431;-85
2022/06/05 01:04:15;;;;;;;29.45;26.35;;;;;;;;;;343864;28;860;-85
2022/06/05 01:04:27;;;;;;;29.67;26.20;;;;;;;;;;343552;28;1341;-87
2022/06/05 01:04:41;;;;;;;30.67;26.02;;;;;;;;;;343864;28;934;-85
2022/06/05 01:04:52;;;;;;;30.25;25.60;;;;;;;;;;341213;28;1249;-89
2022/06/05 01:05:06;;;;;;;29.40;26.20;;;;;;;;;;341385;29;876;-84
2022/06/05 01:05:17;;;;;;;30.17;26.98;;;;;;;;;;341492;29;1006;-92
2022/06/05 01:05:28;;;;;;;30.88;27.58;;;;;;;;;;341409;29;986;-85
2022/06/05 01:05:39;;;;;;;32.33;28.10;;;;;;;;;;342167;28;883;-86
2022/06/05 01:05:51;;;;;;;32.20;28.38;;;;;;;;;;341152;29;943;-90
2022/06/05 01:06:03;;;;;;;31.42;27.67;;;;;;;;;;342388;28;907;-91
2022/06/05 01:06:13;;;;;;;30.10;26.73;;;;;;;;;;342784;28;836;-85
2022/06/05 01:06:24;;;;;;;30.70;26.70;;;;;;;;;;342769;28;904;-93
2022/06/05 01:06:35;;;;;;;30.52;26.58;;;;;;;;;;342779;28;970;-91
2022/06/05 01:06:46;;;;;;;29.73;26.55;;;;;;;;;;343074;28;903;-85
2022/06/05 01:06:57;;;;;;;30.45;27.30;;;;;;;;;;343770;28;827;-84
2022/06/05 01:07:08;;;;;;;31.02;27.67;;;;;;;;;;342609;28;1169;-88
2022/06/05 01:07:20;;;;;;;31.90;27.50;;;;;;;;;;342753;28;820;-91
2022/06/05 01:07:31;;;;;;;31.35;26.65;;;;;;;;;;342775;28;954;-84
2022/06/05 01:07:42;;;;;;;29.55;26.42;;;;;;;;;;342878;28;876;-91
2022/06/05 01:07:52;;;;;;;29.05;26.15;;;;;;;;;;342339;28;1162;-91
2022/06/05 01:08:04;;;;;;;28.13;25.43;;;;;;;;;;342824;28;777;-85
2022/06/05 01:08:15;;;;;;;27.63;24.92;;;;;;;;;;341343;28;877;-91
2022/06/05 01:08:26;;;;;;;27.85;25.13;;;;;;;;;;341191;29;954;-86
2022/06/05 01:08:37;;;;;;;27.83;25.02;;;;;;;;;;341241;29;923;-89
2022/06/05 01:08:47;;;;;;;28.23;25.37;;;;;;;;;;342724;28;879;-85
2022/06/05 01:08:57;;;;;;;27.77;24.97;;;;;;;;;;342332;28;947;-85
2022/06/05 01:09:08;;;;;;;28.20;25.23;;;;;;;;;;344071;28;832;-92
2022/06/05 01:09:19;;;;;;;28.70;25.65;;;;;;;;;;343790;28;1278;-87
2022/06/05 01:09:30;;;;;;;28.98;25.75;;;;;;;;;;343998;28;1243;-92
2022/06/05 01:09:43;;;;;;;28.13;25.08;;;;;;;;;;342651;28;954;-85
2022/06/05 01:09:53;;;;;;;27.40;24.40;;;;;;;;;;343771;28;1003;-85
2022/06/05 01:10:06;;;;;;;27.87;24.87;;;;;;;;;;344132;28;836;-86
2022/06/05 01:10:19;;;;;;;28.92;25.83;;;;;;;;;;345480;28;926;-84
2022/06/05 01:11:06;;;;;;;28.70;25.67;;;;;;;;;;345426;28;918;-85
2022/06/05 01:11:49;;;;;;;29.90;25.80;;;;;;;;;;337364;29;896;-87
2022/06/05 01:12:22;;;;;;;27.95;25.05;;;;;;;;;;338652;29;1474;-85
2022/06/05 01:12:49;;;;;;;28.70;25.60;;;;;;;;;;338791;29;911;-89
2022/06/05 01:13:07;;;;;;;28.65;25.17;;;;;;;;;;338596;29;960;-84
2022/06/05 01:13:31;;;;;;;29.13;25.98;;;;;;;;;;337340;29;1075;-85
2022/06/05 01:13:54;;;;;;;28.70;25.63;;;;;;;;;;337394;29;928;-84
2022/06/05 01:14:23;;;;;;;28.88;25.45;;;;;;;;;;339865;28;1251;-90
2022/06/05 01:15:04;;;;;;;28.23;24.95;;;;;;;;;;344062;28;958;-85
2022/06/05 01:15:51;;;;;;;28.15;25.27;;;;;;;;;;343351;28;938;-85
2022/06/05 01:16:26;;;;;;;28.10;24.85;;;;;;;;;;344084;28;872;-84
2022/06/05 01:17:01;;;;;;;28.15;25.20;;;;;;;;;;342517;28;1354;-91
2022/06/05 01:17:22;;;;;;;28.48;25.02;;;;;;;;;;348781;28;942;-91
2022/06/05 01:17:48;;;;;;;29.02;25.08;;;;;;;;;;349607;28;909;-91
2022/06/05 01:18:11;;;;;;;27.95;24.85;;;;;;;;;;347857;28;2032;-84
2022/06/05 01:18:35;;;;;;;29.73;25.13;;;;;;;;;;348277;28;681;-91
2022/06/05 01:18:51;;;;;;;27.73;24.27;;;;;;;;;;349304;28;973;-85
2022/06/05 01:19:07;;;;;;;29.08;23.98;;;;;;;;;;349053;28;1227;-86
2022/06/05 01:19:41;;;;;;;28.77;24.50;;;;;;;;;;349585;28;858;-85
2022/06/05 01:20:05;;;;;;;30.90;25.92;;;;;;;;;;347960;28;941;-86
2022/06/05 01:20:41;;;;;;;29.65;25.50;;;;;;;;;;348631;28;1099;-85
2022/06/05 01:20:51;;;;;;;28.75;24.13;;;;;;;;;;345810;28;875;-85
2022/06/05 01:21:07;;;;;;;28.48;24.25;;;;;;;;;;347759;28;1340;-85
2022/06/05 01:22:02;;;;;;;29.13;24.30;;;;;;;;;;348167;28;1433;-90
2022/06/05 01:22:33;;;;;;;26.33;23.30;;;;;;;;;;342661;28;867;-85
2022/06/05 01:23:21;;;;;;;29.45;23.77;;;;;;;;;;340957;29;1240;-86
2022/06/05 01:24:18;;;;;;;28.25;23.67;;;;;;;;;;342594;28;1081;-92
2022/06/05 01:25:19;;;;;;;26.88;24.05;;;;;;;;;;342764;28;1022;-85
2022/06/05 01:25:59;;;;;;;28.42;23.60;;;;;;;;;;340050;29;876;-85
2022/06/05 01:26:32;;;;;;;28.08;24.15;;;;;;;;;;340056;29;959;-90
2022/06/05 01:26:55;;;;;;;27.95;23.50;;;;;;;;;;343866;28;1443;-91
2022/06/05 01:27:10;;;;;;;28.08;23.75;;;;;;;;;;342351;28;941;-86
2022/06/05 01:27:27;;;;;;;25.17;22.50;;;;;;;;;;342618;28;1271;-90
2022/06/05 01:27:40;;;;;;;26.45;23.00;;;;;;;;;;341228;28;1424;-85
2022/06/05 01:27:55;;;;;;;26.58;23.48;;;;;;;;;;341302;29;932;-85
2022/06/05 01:28:19;;;;;;;25.92;23.23;;;;;;;;;;339846;29;1153;-85
2022/06/05 01:28:34;;;;;;;26.52;23.60;;;;;;;;;;338713;29;860;-90
2022/06/05 01:28:56;;;;;;;26.88;23.48;;;;;;;;;;338596;29;927;-85
2022/06/05 01:29:34;;;;;;;27.40;23.00;;;;;;;;;;338422;29;1021;-85
2022/06/05 01:29:52;;;;;;;26.75;23.63;;;;;;;;;;338328;29;1548;-87
2022/06/05 01:30:10;;;;;;;25.73;22.75;;;;;;;;;;339251;29;1119;-91
2022/06/05 01:30:24;;;;;;;24.70;22.23;;;;;;;;;;340041;29;1120;-92
2022/06/05 01:30:46;;;;;;;25.17;22.55;;;;;;;;;;341294;28;1379;-85
2022/06/05 01:31:10;;;;;;;25.50;22.95;;;;;;;;;;338678;29;907;-85
2022/06/05 01:31:37;;;;;;;25.60;22.90;;;;;;;;;;338819;29;995;-91
2022/06/05 01:31:52;;;;;;;26.23;22.77;;;;;;;;;;339886;29;1271;-85
2022/06/05 01:32:06;;;;;;;26.42;23.45;;;;;;;;;;339709;29;1279;-85
2022/06/05 01:32:33;;;;;;;26.10;23.35;;;;;;;;;;340111;29;923;-85
2022/06/05 01:32:54;;;;;;;26.13;22.70;;;;;;;;;;341035;28;1052;-91
2022/06/05 01:33:19;;;;;;;24.83;22.20;;;;;;;;;;342367;28;1057;-85
2022/06/05 01:33:32;;;;;;;26.50;23.33;;;;;;;;;;342702;28;978;-86
2022/06/05 01:33:57;;;;;;;28.60;23.70;;;;;;;;;;342534;28;927;-85
2022/06/05 01:34:22;;;;;;;26.73;23.83;;;;;;;;;;341008;29;942;-90
2022/06/05 01:34:48;;;;;;;26.15;23.15;;;;;;;;;;341302;29;1343;-87
2022/06/05 01:35:05;;;;;;;30.95;24.55;;;;;;;;;;341363;29;934;-84
2022/06/05 01:35:26;;;;;;;27.23;23.15;;;;;;;;;;341389;29;957;-85
2022/06/05 01:35:48;;;;;;;24.48;21.67;;;;;;;;;;341734;28;867;-89
2022/06/05 01:36:04;;;;;;;26.33;23.05;;;;;;;;;;342694;28;935;-90
2022/06/05 01:36:42;;;;;;;27.60;23.45;;;;;;;;;;344025;28;883;-90
2022/06/05 01:37:29;;;;;;;25.98;22.10;;;;;;;;;;343659;28;1269;-85
2022/06/05 01:37:46;;;;;;;28.70;23.63;;;;;;;;;;341077;29;927;-91
2022/06/05 01:38:03;;;;;;;26.00;23.20;;;;;;;;;;341775;28;1170;-86
2022/06/05 01:38:37;;;;;;;25.48;22.73;;;;;;;;;;341013;28;1091;-85
2022/06/05 01:39:00;;;;;;;28.90;23.20;;;;;;;;;;341019;28;1166;-85
2022/06/05 01:39:15;;;;;;;26.45;22.85;;;;;;;;;;341016;28;2032;-85
2022/06/05 01:39:39;;;;;;;25.95;22.73;;;;;;;;;;341364;29;984;-92
2022/06/05 01:39:54;;;;;;;25.48;22.58;;;;;;;;;;339992;29;954;-92
2022/06/05 01:40:17;;;;;;;25.83;22.63;;;;;;;;;;339451;28;1400;-84
2022/06/05 01:40:37;;;;;;;28.08;22.95;;;;;;;;;;341416;29;951;-88
2022/06/05 01:40:52;;;;;;;28.58;23.83;;;;;;;;;;339956;29;1348;-90
2022/06/05 01:41:11;;;;;;;26.20;22.98;;;;;;;;;;339897;29;915;-85
2022/06/05 01:41:37;;;;;;;25.17;22.55;;;;;;;;;;341184;29;948;-89
2022/06/05 01:41:52;;;;;;;26.80;22.15;;;;;;;;;;342175;28;1251;-85
2022/06/05 01:42:11;;;;;;;27.50;22.58;;;;;;;;;;342408;28;1294;-85
2022/06/05 01:42:27;;;;;;;25.52;22.30;;;;;;;;;;342784;28;867;-91
2022/06/05 01:42:43;;;;;;;25.50;22.17;;;;;;;;;;342621;28;840;-91
2022/06/05 01:43:22;;;;;;;25.60;22.60;;;;;;;;;;344089;28;943;-85
2022/06/05 01:43:37;;;;;;;27.67;22.67;;;;;;;;;;341742;28;1188;-84
2022/06/05 01:43:53;;;;;;;27.38;22.13;;;;;;;;;;341288;28;911;-92
2022/06/05 01:44:09;;;;;;;26.02;23.08;;;;;;;;;;339739;28;908;-84
2022/06/05 01:44:33;;;;;;;25.58;22.77;;;;;;;;;;340076;29;980;-85
2022/06/05 01:44:48;;;;;;;26.38;22.45;;;;;;;;;;339983;29;908;-91
2022/06/05 01:45:03;;;;;;;26.35;22.92;;;;;;;;;;340126;29;955;-84
2022/06/05 01:45:23;;;;;;;25.55;22.80;;;;;;;;;;339923;29;1133;-91
2022/06/05 01:45:33;;;;;;;26.17;21.98;;;;;;;;;;341175;28;939;-89
2022/06/05 01:45:47;;;;;;;24.45;21.38;;;;;;;;;;341988;28;886;-84
2022/06/05 01:46:03;;;;;;;23.98;21.48;;;;;;;;;;343108;28;934;-84
2022/06/05 01:46:25;;;;;;;24.05;21.42;;;;;;;;;;342422;28;1319;-90
2022/06/05 01:46:38;;;;;;;27.25;22.33;;;;;;;;;;341166;29;1311;-85
2022/06/05 01:46:50;;;;;;;26.75;22.77;;;;;;;;;;339850;29;1365;-92
2022/06/05 01:47:05;;;;;;;27.65;23.17;;;;;;;;;;339838;29;1189;-92